| time (UTC) | temp F | wind direction | speed MPH | gust MPH | rain 1hr in | rain 24hr in | rain mn in | humidity % | barometer mb |
| 20260901171543 | 72 | 87 | 0.0 | 2.0 | 0.02 | 0.52 | 0.42 | 99 | 1014.0 |
| 20260901170040 | 71 | 87 | 0.0 | 2.0 | 0.02 | 0.52 | 0.42 | 98 | 1014.4 |
| 20260901164536 | 70 | 87 | 0.0 | 0.0 | 0.01 | 0.51 | 0.41 | 98 | 1014.3 |
| 20260901163035 | 70 | 87 | 0.0 | 0.0 | 0.00 | 0.50 | 0.40 | 98 | 1014.8 |
| 20260901161537 | 71 | 87 | 0.0 | 0.0 | 0.01 | 0.50 | 0.40 | 98 | 1014.8 |
| 20260901160034 | 70 | 87 | 0.0 | 0.0 | 0.03 | 0.50 | 0.40 | 99 | 1014.5 |
| 20260901154536 | 70 | 87 | 0.0 | 0.0 | 0.05 | 0.50 | 0.40 | 98 | 1014.7 |
| 20260901153033 | 70 | 87 | 0.0 | 0.0 | 0.08 | 0.50 | 0.40 | 98 | 1014.8 |
| 20260901151527 | 70 | 87 | 0.0 | 0.0 | 0.07 | 0.49 | 0.39 | 98 | 1015.7 |
| 20260901150026 | 70 | 87 | 0.0 | 2.0 | 0.07 | 0.47 | 0.37 | 98 | 1015.7 |
| 20260901144525 | 70 | 87 | 0.0 | 0.0 | 0.05 | 0.45 | 0.35 | 98 | 1015.6 |
| 20260901143024 | 70 | 87 | 0.0 | 0.0 | 0.02 | 0.42 | 0.32 | 98 | 1015.3 |
| 20260901141524 | 70 | 87 | 0.0 | 0.0 | 0.01 | 0.41 | 0.31 | 98 | 1015.4 |
| 20260901140038 | 70 | 87 | 0.0 | 2.0 | 0.00 | 0.40 | 0.30 | 98 | 1015.4 |
| 20260901134524 | 70 | 87 | 0.0 | 0.0 | 0.00 | 0.40 | 0.30 | 98 | 1015.5 |
| 20260901133025 | 70 | 172 | 0.0 | 0.0 | 0.00 | 0.40 | 0.30 | 98 | 1015.1 |
| 20260901131520 | 69 | 172 | 0.0 | 0.0 | 0.00 | 0.40 | 0.30 | 98 | 1015.3 |
| 20260901130035 | 69 | 172 | 0.0 | 0.0 | 0.00 | 0.40 | 0.30 | 98 | 1015.3 |
| 20260901124520 | 69 | 172 | 0.0 | 0.0 | 0.00 | 0.40 | 0.30 | 98 | 1015.4 |
| 20260901123022 | 69 | 172 | 0.0 | 0.0 | 0.00 | 0.40 | 0.30 | 98 | 1015.4 |
| 20260901121519 | 69 | 172 | 0.0 | 0.0 | 0.00 | 0.40 | 0.30 | 98 | 1015.1 |
| 20260901120029 | 69 | 172 | 0.0 | 0.0 | 0.00 | 0.40 | 0.30 | 98 | 1015.1 |
| 20260901114519 | 69 | 172 | 0.0 | 0.0 | 0.01 | 0.40 | 0.30 | 98 | 1015.1 |
| 20260901113016 | 69 | 172 | 0.0 | 0.0 | 0.01 | 0.40 | 0.30 | 98 | 1015.4 |
| 20260901111516 | 69 | 172 | 0.0 | 1.0 | 0.01 | 0.40 | 0.30 | 98 | 1015.5 |
| 20260901110014 | 69 | 172 | 0.0 | 0.0 | 0.01 | 0.40 | 0.30 | 98 | 1015.4 |
| 20260901104513 | 69 | 172 | 0.0 | 0.0 | 0.00 | 0.39 | 0.28 | 98 | 1015.6 |
| 20260901103018 | 68 | 172 | 0.0 | 0.0 | 0.00 | 0.39 | 0.28 | 98 | 1015.3 |
| 20260901101512 | 68 | 172 | 0.0 | 0.0 | 0.00 | 0.39 | 0.28 | 98 | 1015.4 |
| 20260901100012 | 68 | 172 | 0.0 | 0.0 | 0.00 | 0.39 | 0.28 | 98 | 1015.2 |
| 20260901094514 | 68 | 172 | 0.0 | 0.0 | 0.00 | 0.39 | 0.28 | 98 | 1015.3 |
| 20260901093010 | 68 | 172 | 0.0 | 0.0 | 0.00 | 0.39 | 0.28 | 98 | 1015.2 |
| 20260901091510 | 68 | 172 | 0.0 | 0.0 | 0.00 | 0.39 | 0.28 | 98 | 1015.2 |
| 20260901090011 | 68 | 172 | 0.0 | 0.0 | 0.00 | 0.39 | 0.28 | 98 | 1015.3 |
| 20260901084506 | 68 | 172 | 0.0 | 0.0 | 0.00 | 0.39 | 0.28 | 97 | 1015.4 |
| 20260901083005 | 68 | 172 | 0.0 | 0.0 | 0.00 | 0.39 | 0.28 | 98 | 1015.7 |
| 20260901081504 | 69 | 172 | 0.0 | 0.0 | 0.00 | 0.39 | 0.28 | 97 | 1015.6 |
| 20260901080003 | 68 | 172 | 0.0 | 0.0 | 0.00 | 0.39 | 0.28 | 97 | 1015.6 |
| 20260901074505 | 69 | 172 | 0.0 | 0.0 | 0.00 | 0.39 | 0.28 | 97 | 1015.9 |
| 20260901073002 | 69 | 172 | 0.0 | 0.0 | 0.00 | 0.39 | 0.28 | 97 | 1015.9 |
| 20260901071559 | 68 | 172 | 0.0 | 0.0 | 0.00 | 0.39 | 0.28 | 97 | 1015.9 |
| 20260901070104 | 68 | 172 | 0.0 | 0.0 | 0.01 | 0.39 | 0.28 | 97 | 1016.1 |
| 20260901064559 | 68 | 172 | 0.0 | 0.0 | 0.01 | 0.39 | 0.28 | 97 | 1016.2 |
| 20260901063056 | 68 | 172 | 0.0 | 0.0 | 0.05 | 0.39 | 0.28 | 97 | 1016.1 |
| 20260901061555 | 68 | 172 | 0.0 | 0.0 | 0.06 | 0.39 | 0.28 | 97 | 1016.4 |
| 20260901060052 | 68 | 172 | 0.0 | 0.0 | 0.05 | 0.38 | 0.28 | 97 | 1016.7 |
| 20260901054552 | 68 | 172 | 0.0 | 2.0 | 0.06 | 0.38 | 0.28 | 97 | 1016.7 |
| 20260901053117 | 68 | 172 | 0.0 | 0.0 | 0.03 | 0.34 | 0.24 | 97 | 1016.7 |
| 20260901051604 | 68 | 172 | 0.0 | 2.0 | 0.18 | 0.33 | 0.23 | 97 | 1016.7 |
| 20260901050054 | 68 | 172 | 0.0 | 0.0 | 0.23 | 0.33 | 0.23 | 97 | 1016.7 |
| 20260901044603 | 69 | 172 | 0.0 | 0.0 | 0.24 | 0.32 | 0.22 | 97 | 1016.9 |
| 20260901043048 | 69 | 172 | 0.0 | 0.0 | 0.26 | 0.30 | 0.20 | 96 | 1016.9 |
| 20260901041545 | 68 | 172 | 0.0 | 0.0 | 0.12 | 0.15 | 0.05 | 96 | 1017.1 |
| 20260901040104 | 68 | 172 | 0.0 | 0.0 | 0.10 | 0.10 | 0.00 | 96 | 1017.2 |
| 20260901034644 | 68 | 172 | 0.0 | 0.0 | 0.08 | 0.08 | 0.08 | 96 | 1017.2 |
| 20260901033042 | 69 | 172 | 0.0 | 0.0 | 0.04 | 0.04 | 0.04 | 95 | 1017.2 |
| 20260901031540 | 69 | 172 | 0.0 | 0.0 | 0.03 | 0.03 | 0.03 | 95 | 1017.3 |
| 20260901030039 | 69 | 172 | 0.0 | 0.0 | 0.00 | 0.00 | 0.00 | 95 | 1017.4 |
| 20260901024545 | 69 | 172 | 0.0 | 0.0 | 0.00 | 0.01 | 0.00 | 95 | 1017.4 |
| 20260901023056 | 69 | 172 | 0.0 | 0.0 | 0.00 | 0.01 | 0.00 | 95 | 1017.6 |
| 20260901021537 | 69 | 172 | 0.0 | 0.0 | 0.00 | 0.01 | 0.00 | 94 | 1017.8 |
| 20260901020041 | 69 | 172 | 0.0 | 0.0 | 0.00 | 0.01 | 0.00 | 94 | 1017.8 |
| 20260901014544 | 69 | 172 | 0.0 | 0.0 | 0.00 | 0.04 | 0.00 | 94 | 1017.8 |
| 20260901013036 | 69 | 172 | 0.0 | 0.0 | 0.00 | 0.04 | 0.00 | 94 | 1017.9 |
| 20260901011534 | 69 | 172 | 0.0 | 0.0 | 0.00 | 0.04 | 0.00 | 94 | 1017.8 |
| 20260901010034 | 70 | 172 | 0.0 | 0.0 | 0.00 | 0.04 | 0.00 | 94 | 1017.8 |
| 20260901004535 | 70 | 172 | 0.0 | 0.0 | 0.00 | 0.06 | 0.00 | 93 | 1017.8 |
| 20260901003033 | 70 | 172 | 0.0 | 0.0 | 0.00 | 0.06 | 0.00 | 93 | 1017.5 |
| 20260901001532 | 70 | 172 | 0.0 | 0.0 | 0.00 | 0.06 | 0.00 | 92 | 1017.5 |
| 20260901000031 | 71 | 172 | 0.0 | 0.0 | 0.00 | 0.06 | 0.00 | 92 | 1017.4 |
| 20260831234531 | 71 | 172 | 0.0 | 0.0 | 0.00 | 0.07 | 0.00 | 91 | 1017.5 |
| 20260831233029 | 71 | 172 | 0.0 | 0.0 | 0.00 | 0.07 | 0.00 | 90 | 1017.6 |
| 20260831231529 | 72 | 172 | 0.0 | 0.0 | 0.00 | 0.07 | 0.00 | 89 | 1017.8 |
| 20260831230028 | 72 | 172 | 0.0 | 0.0 | 0.00 | 0.07 | 0.00 | 88 | 1017.8 |
| 20260831224527 | 72 | 172 | 0.0 | 0.0 | 0.00 | 0.07 | 0.00 | 86 | 1017.7 |
| 20260831223027 | 73 | 172 | 0.0 | 0.0 | 0.00 | 0.07 | 0.00 | 87 | 1017.9 |
| 20260831221525 | 73 | 172 | 0.0 | 0.0 | 0.00 | 0.07 | 0.00 | 87 | 1017.9 |
| 20260831220026 | 72 | 172 | 0.0 | 0.0 | 0.00 | 0.07 | 0.00 | 87 | 1018.1 |
| 20260831214523 | 72 | 172 | 0.0 | 0.0 | 0.00 | 0.07 | 0.00 | 87 | 1018.1 |
| 20260831213023 | 72 | 172 | 0.0 | 2.0 | 0.00 | 0.07 | 0.00 | 86 | 1018.1 |
| 20260831211521 | 73 | 172 | 0.0 | 0.0 | 0.00 | 0.07 | 0.00 | 86 | 1018.1 |
| 20260831210024 | 73 | 172 | 0.0 | 0.0 | 0.00 | 0.07 | 0.00 | 85 | 1018.1 |
| 20260831204521 | 73 | 172 | 0.0 | 0.0 | 0.00 | 0.07 | 0.00 | 83 | 1018.1 |
| 20260831203024 | 73 | 172 | 0.0 | 1.0 | 0.00 | 0.07 | 0.00 | 82 | 1018.2 |
| 20260831201520 | 73 | 172 | 0.0 | 4.0 | 0.00 | 0.07 | 0.00 | 82 | 1018.0 |
| 20260831200036 | 73 | 144 | 0.0 | 0.0 | 0.00 | 0.07 | 0.00 | 83 | 1018.2 |
| 20260831194518 | 74 | 144 | 0.0 | 0.0 | 0.00 | 0.07 | 0.00 | 81 | 1018.5 |
| 20260831193032 | 75 | 144 | 0.0 | 0.0 | 0.00 | 0.07 | 0.00 | 77 | 1018.6 |
| 20260831191517 | 76 | 144 | 0.0 | 1.0 | 0.00 | 0.07 | 0.00 | 73 | 1018.5 |
| 20260831190016 | 77 | 144 | 0.0 | 0.0 | 0.00 | 0.07 | 0.00 | 73 | 1018.9 |
| 20260831184516 | 77 | 144 | 0.0 | 0.0 | 0.00 | 0.07 | 0.00 | 71 | 1018.9 |
| 20260831183015 | 78 | 144 | 0.0 | 2.0 | 0.00 | 0.07 | 0.00 | 69 | 1019.0 |
| 20260831181514 | 78 | 152 | 0.0 | 1.0 | 0.00 | 0.07 | 0.00 | 68 | 1019.0 |
| 20260831180024 | 77 | 152 | 0.0 | 3.0 | 0.00 | 0.07 | 0.00 | 70 | 1019.1 |
| 20260831174520 | 78 | 168 | 0.0 | 2.0 | 0.00 | 0.07 | 0.00 | 68 | 1019.2 |
| 20260831173011 | 77 | 164 | 0.0 | 1.0 | 0.00 | 0.07 | 0.00 | 68 | 1019.4 |